Skip Navigation Links Skip Navigation Links

Current Weather

London City Apt., London

For information only: do not use for flight planning or navigation.
Latest weather
Observation time Wednesday, November 25, 2020 2:20 AM GMT
Local time Wednesday, November 25, 2020 2:50 AM GMT
Flight conditions Marginal Visual Meteorological Conditions
Winds
Wind direction variable
Wind speed 3 mph
Visibility 6.2 mi.
Sky condition
Ceiling 1,900 ft. broken clouds
Cloud layer broken clouds 1,900 ft.
Temperature 52°F
Dewpoint 46°F
Altimeter 29.85 in.Hg
Derived measurements
Relative humidity 82%
Density altitude -247 ft.
Remarks
Fully automated report.
METAR EGLC 250220Z AUTO VRB03KT 9999 BKN019 11/08 Q1011

Settings

Location code

InnerDrive.Weather 4.0.6770.0 Release CLR 4.0.30319.42000
Copyright ©2018 Inner Drive Technology. All rights reserved. Portions Copyright ©1986-2018 David Braverman.

Find weather

Site navigation


Skip Navigation Links

Place info

Page info

PayPal - The safer, easier way to pay online!

Return home.

Copyright ©2020 Inner Drive Technology. Purveyors of fine, hand-crafted computer software. Page printed 2020-11-25T02:50:29 UTC.